createdAt,value
2022-12-05T00:01:38.790Z,101307.97
2022-12-05T00:04:11.282Z,101298.25
2022-12-05T00:06:42.739Z,101289.25
2022-12-05T00:09:13.669Z,101303.00
2022-12-05T00:11:45.309Z,101299.41
2022-12-05T00:14:16.676Z,101299.78
2022-12-05T00:16:49.266Z,101300.03
2022-12-05T00:19:19.333Z,101307.00
2022-12-05T00:21:49.235Z,101296.88
2022-12-05T00:24:20.074Z,101302.63
2022-12-05T00:26:49.859Z,101284.53
2022-12-05T00:29:19.727Z,101299.06
2022-12-05T00:31:52.149Z,101295.00
2022-12-05T00:34:22.087Z,101280.38
2022-12-05T00:36:52.230Z,101283.16
2022-12-05T00:39:22.064Z,101296.13
2022-12-05T00:41:51.873Z,101234.13
2022-12-05T00:44:22.059Z,101264.41
2022-12-05T00:46:54.479Z,101277.59
2022-12-05T00:49:24.278Z,101292.63
2022-12-05T00:51:54.167Z,101226.81
2022-12-05T00:54:23.993Z,101285.41
2022-12-05T00:56:56.358Z,101298.28
2022-12-05T00:59:26.487Z,101171.50
2022-12-05T01:01:58.926Z,101282.19
2022-12-05T01:04:28.819Z,101290.22
2022-12-05T01:07:00.161Z,101273.19
2022-12-05T01:09:30.134Z,101154.81
2022-12-05T01:11:59.930Z,101281.94
2022-12-05T01:14:29.988Z,101291.88
2022-12-05T01:17:02.495Z,101285.59
2022-12-05T01:19:34.601Z,101282.75
2022-12-05T01:22:04.437Z,101208.31
2022-12-05T01:24:34.333Z,101286.63
2022-12-05T01:27:04.246Z,101268.53
2022-12-05T01:29:34.180Z,101283.69
2022-12-05T01:32:07.043Z,101271.69
2022-12-05T01:34:37.055Z,101279.25
2022-12-05T01:37:06.998Z,101220.34
2022-12-05T01:39:36.879Z,101266.13
2022-12-05T01:42:08.512Z,101197.97
2022-12-05T01:45:04.303Z,101281.59
2022-12-05T01:47:39.415Z,101282.66
2022-12-05T01:50:11.048Z,101285.59
2022-12-05T01:52:42.226Z,101290.91
2022-12-05T01:55:16.334Z,101282.38
2022-12-05T01:57:46.990Z,101284.81
2022-12-05T02:00:20.716Z,101274.63
2022-12-05T02:02:57.454Z,101278.28
2022-12-05T02:05:31.158Z,101223.59
2022-12-05T02:08:03.344Z,101223.00
2022-12-05T02:10:37.820Z,101274.03
2022-12-05T02:13:20.787Z,101276.47
2022-12-05T02:15:57.184Z,101248.16
2022-12-05T02:18:45.594Z,101178.03
2022-12-05T02:21:43.929Z,101266.16
2022-12-05T02:24:46.440Z,101272.34
2022-12-05T02:27:42.448Z,101270.44
2022-12-05T02:30:19.240Z,101273.69
2022-12-05T02:33:05.356Z,101278.78
2022-12-05T02:35:44.772Z,101272.09
2022-12-05T02:38:21.940Z,101254.91
2022-12-05T02:41:00.666Z,101269.78
2022-12-05T02:43:35.527Z,101270.56
2022-12-05T02:46:14.120Z,101250.91
2022-12-05T02:48:46.178Z,101247.53
2022-12-05T02:51:20.576Z,101251.00
2022-12-05T02:53:52.936Z,101266.13
2022-12-05T02:56:23.849Z,101268.19
2022-12-05T02:58:56.207Z,101254.28
2022-12-05T03:01:32.828Z,101271.19
2022-12-05T03:04:05.564Z,101269.06
2022-12-05T03:06:39.029Z,101242.47
2022-12-05T03:09:14.774Z,101205.56
2022-12-05T03:11:50.275Z,101269.53
2022-12-05T03:14:24.067Z,101198.97
2022-12-05T03:17:00.826Z,101262.66
2022-12-05T03:19:35.382Z,101266.56
2022-12-05T03:22:12.246Z,101265.88
2022-12-05T03:24:44.314Z,101266.66
2022-12-05T03:27:18.729Z,101268.97
2022-12-05T03:29:54.170Z,101268.19
2022-12-05T03:32:33.257Z,101268.91
2022-12-05T03:35:09.676Z,101261.19
2022-12-05T03:37:48.207Z,101265.50
2022-12-05T03:40:29.641Z,101270.66
2022-12-05T03:43:05.610Z,101262.50
2022-12-05T03:45:42.684Z,101267.28
2022-12-05T03:48:23.541Z,101264.91
2022-12-05T03:50:56.226Z,101263.88
2022-12-05T03:53:30.603Z,101258.47
2022-12-05T03:56:05.035Z,101230.25
2022-12-05T03:58:38.993Z,101265.38
2022-12-05T04:01:11.461Z,101262.59
2022-12-05T04:03:52.056Z,101265.44
2022-12-05T04:06:27.813Z,101207.16
2022-12-05T04:09:01.598Z,101258.47
2022-12-05T04:11:37.204Z,101259.34
2022-12-05T04:14:11.706Z,101265.50
2022-12-05T04:16:56.492Z,101262.13
2022-12-05T04:19:52.336Z,101262.13
2022-12-05T04:22:20.553Z,101224.16
2022-12-05T04:25:04.707Z,101259.38
2022-12-05T04:27:43.238Z,101260.88
2022-12-05T04:30:17.543Z,101256.19
2022-12-05T04:32:51.005Z,101260.72
2022-12-05T04:35:28.389Z,101258.13
2022-12-05T04:38:03.535Z,101242.47
2022-12-05T04:40:40.011Z,101231.69
2022-12-05T04:43:12.095Z,101258.13
2022-12-05T04:45:44.421Z,101243.09
2022-12-05T04:48:18.974Z,101250.81
2022-12-05T04:50:55.066Z,101244.84
2022-12-05T04:53:27.819Z,101240.41
2022-12-05T04:56:01.919Z,101239.88
2022-12-05T04:58:33.737Z,101250.28
2022-12-05T05:01:09.660Z,101254.28
2022-12-05T05:03:45.569Z,101236.91
2022-12-05T05:06:18.157Z,101240.97
2022-12-05T05:08:52.663Z,101186.75
2022-12-05T05:11:25.490Z,101250.91
2022-12-05T05:13:55.656Z,101250.13
2022-12-05T05:16:27.881Z,101248.75
2022-12-05T05:18:58.010Z,101261.66
2022-12-05T05:21:32.333Z,101256.91
2022-12-05T05:24:02.789Z,101241.59
2022-12-05T05:26:33.568Z,101252.91
2022-12-05T05:29:03.512Z,101247.09
2022-12-05T05:31:33.735Z,101242.81
2022-12-05T05:34:09.471Z,101245.44
2022-12-05T05:36:42.503Z,101253.69
2022-12-05T05:39:16.670Z,101242.63
2022-12-05T05:41:46.809Z,101262.63
2022-12-05T05:44:16.633Z,101180.28
2022-12-05T05:46:46.495Z,101253.22
2022-12-05T05:49:16.358Z,101246.97
2022-12-05T05:51:48.740Z,101261.59
2022-12-05T05:54:18.566Z,101266.13
2022-12-05T05:56:48.418Z,101253.84
2022-12-05T05:59:18.236Z,101195.59
2022-12-05T06:01:48.014Z,101257.59
2022-12-05T06:04:17.822Z,101247.72
2022-12-05T06:06:50.261Z,101233.81
2022-12-05T06:09:20.549Z,101263.75
2022-12-05T06:11:50.351Z,101258.97
2022-12-05T06:14:20.133Z,101261.25
2022-12-05T06:16:49.981Z,101257.59
2022-12-05T06:19:19.824Z,101266.44
2022-12-05T06:21:54.183Z,101156.28
2022-12-05T06:24:24.097Z,101266.69
2022-12-05T06:26:53.968Z,101271.31
2022-12-05T06:29:25.795Z,101268.41
2022-12-05T06:31:57.315Z,101269.94
2022-12-05T06:34:27.212Z,101274.03
2022-12-05T06:36:59.619Z,101259.84
2022-12-05T06:39:29.627Z,101277.25
2022-12-05T06:41:59.455Z,101278.28
2022-12-05T06:44:29.934Z,101264.50
2022-12-05T06:47:01.890Z,101270.03
2022-12-05T06:49:37.632Z,101266.81
2022-12-05T06:52:12.870Z,101267.94
2022-12-05T06:54:42.771Z,101263.00
2022-12-05T06:57:13.592Z,101279.66
2022-12-05T06:59:43.611Z,101276.28
2022-12-05T07:02:12.997Z,101284.09
2022-12-05T07:04:42.932Z,101273.47
2022-12-05T07:07:15.563Z,101287.22
2022-12-05T07:09:54.775Z,101277.03
2022-12-05T07:12:24.627Z,101277.88
2022-12-05T07:14:54.474Z,101286.22
2022-12-05T07:17:24.917Z,101290.69
2022-12-05T07:19:56.570Z,101218.25
2022-12-05T07:22:29.379Z,101282.44
2022-12-05T07:24:59.287Z,101287.38
2022-12-05T07:27:31.345Z,101289.72
2022-12-05T07:30:01.628Z,101283.81
2022-12-05T07:32:34.935Z,101223.75
2022-12-05T07:35:04.856Z,101295.81
2022-12-05T07:37:38.322Z,101291.97
2022-12-05T07:40:10.603Z,101297.00
2022-12-05T07:42:40.413Z,101261.91
2022-12-05T07:45:11.986Z,101294.00
2022-12-05T07:47:41.994Z,101303.56
2022-12-05T07:50:15.494Z,101280.31
2022-12-05T07:52:47.974Z,101303.50
2022-12-05T07:55:17.996Z,101282.41
2022-12-05T07:57:47.950Z,101311.84
2022-12-05T08:00:19.406Z,101303.88
2022-12-05T08:02:49.376Z,101306.84
2022-12-05T08:05:19.472Z,101314.06
2022-12-05T08:07:52.126Z,101310.16
2022-12-05T08:10:25.335Z,101250.94
2022-12-05T08:12:55.262Z,101310.41
2022-12-05T08:15:26.169Z,101296.13
2022-12-05T08:17:56.159Z,101261.53
2022-12-05T08:20:26.123Z,101319.88
2022-12-05T08:22:58.652Z,101311.53
2022-12-05T08:25:28.617Z,101315.44
2022-12-05T08:27:59.534Z,101301.50
2022-12-05T08:30:29.569Z,101318.47
2022-12-05T08:32:59.591Z,101281.38
2022-12-05T08:35:33.369Z,101311.97
2022-12-05T08:38:08.938Z,101258.19
2022-12-05T08:40:38.849Z,101319.38
2022-12-05T08:43:08.762Z,101317.81
2022-12-05T08:45:39.715Z,101328.44
2022-12-05T08:48:09.870Z,101332.00
2022-12-05T08:50:42.247Z,101328.28
2022-12-05T08:53:15.846Z,101325.25
2022-12-05T08:55:49.411Z,101325.06
2022-12-05T08:58:21.398Z,101335.06
2022-12-05T09:00:53.514Z,101329.84
2022-12-05T09:03:27.318Z,101327.06
2022-12-05T09:06:08.986Z,101342.31
2022-12-05T09:08:48.843Z,101333.34
2022-12-05T09:11:21.669Z,101333.44
2022-12-05T09:13:57.728Z,101313.41
2022-12-05T09:16:36.522Z,101338.38
2022-12-05T09:19:13.428Z,101343.44
2022-12-05T09:21:45.356Z,101264.91
2022-12-05T09:24:18.013Z,101336.59
2022-12-05T09:26:48.389Z,101291.13
2022-12-05T09:29:21.523Z,101329.28
2022-12-05T09:31:54.081Z,101342.56
2022-12-05T09:34:26.098Z,101272.06
2022-12-05T09:37:10.520Z,101267.16
2022-12-05T09:39:50.395Z,101343.59
2022-12-05T09:42:38.990Z,101332.72
2022-12-05T09:45:18.364Z,101334.09
2022-12-05T09:47:54.778Z,101336.03
2022-12-05T09:50:28.794Z,101349.50
2022-12-05T09:53:08.048Z,101338.81
2022-12-05T09:55:47.133Z,101340.41
2022-12-05T09:58:25.405Z,101336.28
2022-12-05T10:01:01.284Z,101327.06
2022-12-05T10:03:38.682Z,101322.63
2022-12-05T10:06:17.791Z,101317.84
2022-12-05T10:09:10.153Z,101309.81
2022-12-05T10:11:50.378Z,101327.53
2022-12-05T10:14:29.320Z,101124.25
2022-12-05T10:17:05.467Z,101330.09
2022-12-05T10:19:41.098Z,101323.75
2022-12-05T10:22:20.441Z,101324.53
2022-12-05T10:24:55.551Z,101310.22
2022-12-05T10:27:40.003Z,101324.63
2022-12-05T10:30:17.876Z,101320.56
2022-12-05T10:32:55.731Z,101310.47
2022-12-05T10:35:28.194Z,101314.19
2022-12-05T10:38:01.855Z,101313.84
2022-12-05T10:40:38.781Z,101322.03
2022-12-05T10:43:16.329Z,101315.38
2022-12-05T10:45:48.859Z,101317.59
2022-12-05T10:48:25.253Z,101291.16
2022-12-05T10:50:59.963Z,101310.81
2022-12-05T10:53:38.591Z,101313.47
2022-12-05T10:56:42.929Z,101308.34
2022-12-05T10:59:21.057Z,101308.63
2022-12-05T11:01:55.464Z,101298.69
2022-12-05T11:04:31.917Z,101302.50
2022-12-05T11:07:03.591Z,101305.75
2022-12-05T11:09:35.963Z,101299.91
2022-12-05T11:12:19.505Z,101240.66
2022-12-05T11:15:04.090Z,101295.91
2022-12-05T11:17:36.499Z,101242.84
2022-12-05T11:20:27.955Z,101302.59
2022-12-05T11:22:59.560Z,101303.72
2022-12-05T11:25:34.104Z,101304.94
2022-12-05T11:28:28.392Z,101299.66
2022-12-05T11:31:06.241Z,101298.06
2022-12-05T11:33:38.438Z,101304.94
2022-12-05T11:36:16.239Z,101298.66
2022-12-05T11:38:46.486Z,101299.72
2022-12-05T11:41:42.913Z,101300.47
2022-12-05T11:44:42.338Z,101284.13
2022-12-05T11:47:24.895Z,101297.78
2022-12-05T11:50:21.812Z,101216.72
2022-12-05T11:53:04.739Z,101285.28
2022-12-05T11:55:41.085Z,101279.72
2022-12-05T11:58:37.025Z,101291.72
2022-12-05T12:01:21.447Z,101281.53
2022-12-05T12:04:18.171Z,101298.34
2022-12-05T12:07:00.956Z,101289.28
2022-12-05T12:09:42.774Z,101292.75
2022-12-05T12:12:26.693Z,101234.28
2022-12-05T12:15:07.275Z,101288.91
2022-12-05T12:17:47.507Z,101290.66
2022-12-05T12:20:38.093Z,101281.50
2022-12-05T12:23:21.549Z,101283.88
2022-12-05T12:26:09.161Z,101276.09
2022-12-05T12:28:45.831Z,101286.53
2022-12-05T12:31:30.847Z,101287.66
2022-12-05T12:34:12.684Z,101284.03
2022-12-05T12:36:51.967Z,101276.00
2022-12-05T12:39:34.980Z,101282.81
2022-12-05T12:42:20.844Z,101283.25
2022-12-05T12:45:22.326Z,101285.66
2022-12-05T12:48:08.372Z,101219.84
2022-12-05T12:50:45.621Z,101240.38
2022-12-05T12:53:44.986Z,101267.88
2022-12-05T12:56:25.933Z,101275.31
2022-12-05T12:59:06.571Z,101190.00
2022-12-05T13:01:42.893Z,101270.94
2022-12-05T13:04:17.485Z,101243.53
2022-12-05T13:06:52.314Z,101242.69
2022-12-05T13:09:30.242Z,101269.69
2022-12-05T13:12:05.638Z,101268.13
2022-12-05T13:14:40.127Z,101268.13
2022-12-05T13:17:17.320Z,101260.66
2022-12-05T13:19:51.379Z,101257.06
2022-12-05T13:22:23.695Z,101262.38
2022-12-05T13:24:57.584Z,101263.22
2022-12-05T13:27:30.489Z,101262.13
2022-12-05T13:30:03.828Z,101267.78
2022-12-05T13:32:36.985Z,101250.69
2022-12-05T13:35:13.212Z,101268.88
2022-12-05T13:38:02.307Z,101270.47
2022-12-05T13:40:49.143Z,101268.72
2022-12-05T13:43:22.368Z,101236.09
2022-12-05T13:46:06.906Z,101276.19
2022-12-05T13:48:40.931Z,101225.41
2022-12-05T13:51:16.730Z,101193.31
2022-12-05T13:53:50.591Z,101283.16
2022-12-05T13:56:49.220Z,101279.84
2022-12-05T13:59:48.979Z,101271.53
2022-12-05T14:02:51.874Z,101290.84
2022-12-05T14:05:44.263Z,101284.59
2022-12-05T14:08:56.038Z,101281.72
2022-12-05T14:11:26.219Z,101286.94
2022-12-05T14:14:04.238Z,101280.75
2022-12-05T14:16:47.738Z,101287.53
2022-12-05T14:19:55.942Z,101283.72
2022-12-05T14:22:47.274Z,101281.53
2022-12-05T14:25:31.246Z,101272.47
2022-12-05T14:28:12.790Z,101221.03
2022-12-05T14:30:56.949Z,101274.00
2022-12-05T14:33:26.963Z,101269.34
2022-12-05T14:35:57.382Z,101278.19
2022-12-05T14:38:32.384Z,101266.53
2022-12-05T14:41:15.989Z,101278.00
2022-12-05T14:43:46.597Z,101273.00
2022-12-05T14:46:28.230Z,101276.56
2022-12-05T14:48:58.414Z,101278.50
2022-12-05T14:51:48.704Z,101266.50
2022-12-05T14:54:20.550Z,101277.16
2022-12-05T14:56:55.035Z,101274.63
2022-12-05T14:59:30.108Z,101280.47
2022-12-05T15:02:05.276Z,101271.97
2022-12-05T15:04:41.837Z,101283.78
2022-12-05T15:07:15.126Z,101280.31
2022-12-05T15:09:59.142Z,101277.84
2022-12-05T15:12:40.014Z,101278.38
2022-12-05T15:15:17.561Z,101222.13
2022-12-05T15:17:54.962Z,101257.31
2022-12-05T15:20:40.840Z,101287.97
2022-12-05T15:23:41.004Z,101288.72
2022-12-05T15:26:46.059Z,101298.19
2022-12-05T15:29:18.431Z,101241.56
2022-12-05T15:31:50.914Z,101302.63
2022-12-05T15:34:29.747Z,101307.47
2022-12-05T15:37:07.351Z,101301.06
2022-12-05T15:39:53.961Z,101307.53
2022-12-05T15:42:29.849Z,101242.91
2022-12-05T15:45:17.613Z,101308.41
2022-12-05T15:47:50.745Z,101325.03
2022-12-05T15:50:33.637Z,101306.56
2022-12-05T15:53:13.656Z,101277.78
2022-12-05T15:55:49.958Z,101306.06
2022-12-05T15:58:26.511Z,101314.28
2022-12-05T16:01:01.411Z,101301.25
2022-12-05T16:03:42.907Z,101312.41
2022-12-05T16:06:20.387Z,101321.47
2022-12-05T16:08:53.400Z,101316.31
2022-12-05T16:11:28.941Z,101318.25
2022-12-05T16:14:01.316Z,101321.34
2022-12-05T16:16:34.542Z,101316.38
2022-12-05T16:19:09.222Z,101313.06
2022-12-05T16:21:44.235Z,101317.78
2022-12-05T16:24:21.637Z,101315.34
2022-12-05T16:27:01.242Z,101306.31
2022-12-05T16:29:35.598Z,101314.22
2022-12-05T16:32:09.844Z,101312.34
2022-12-05T16:34:39.875Z,101323.03
2022-12-05T16:37:21.613Z,101306.75
2022-12-05T16:39:53.919Z,101302.91
2022-12-05T16:42:28.553Z,101274.97
2022-12-05T16:45:05.055Z,101333.28
2022-12-05T16:47:57.863Z,101332.84
2022-12-05T16:50:33.263Z,101268.31
2022-12-05T16:53:19.146Z,101303.28
2022-12-05T16:55:52.494Z,101329.66
2022-12-05T16:58:27.700Z,101331.44
2022-12-05T17:01:03.334Z,101325.94
2022-12-05T17:03:35.678Z,101330.13
2022-12-05T17:06:06.289Z,101321.69
2022-12-05T17:08:39.886Z,101320.22
2022-12-05T17:11:20.134Z,101333.53
2022-12-05T17:13:51.327Z,101324.69
2022-12-05T17:16:22.574Z,101324.59
2022-12-05T17:18:52.696Z,101296.59
2022-12-05T17:21:24.576Z,101315.88
2022-12-05T17:23:58.299Z,101337.47
2022-12-05T17:26:30.254Z,101340.09
2022-12-05T17:29:00.216Z,101327.97
2022-12-05T17:31:30.185Z,101336.50
2022-12-05T17:34:00.134Z,101281.44
2022-12-05T17:36:30.049Z,101334.44
2022-12-05T17:39:03.604Z,101277.44
2022-12-05T17:41:33.545Z,101330.31
2022-12-05T17:44:03.580Z,101335.47
2022-12-05T17:46:33.630Z,101341.75
2022-12-05T17:49:03.817Z,101341.41
2022-12-05T17:51:34.138Z,101321.13
2022-12-05T17:54:07.850Z,101338.72
2022-12-05T17:56:37.809Z,101347.94
2022-12-05T17:59:08.702Z,101343.16
2022-12-05T18:01:42.403Z,101335.38
2022-12-05T18:04:12.292Z,101340.28
2022-12-05T18:06:42.270Z,101341.06
2022-12-05T18:09:14.863Z,101342.03
2022-12-05T18:11:44.724Z,101345.94
2022-12-05T18:14:14.641Z,101346.06
2022-12-05T18:16:44.597Z,101284.25
2022-12-05T18:19:14.539Z,101345.06
2022-12-05T18:21:47.503Z,101351.78
2022-12-05T18:24:20.206Z,101243.69
2022-12-05T18:26:50.148Z,101358.09
2022-12-05T18:29:20.041Z,101356.25
2022-12-05T18:31:49.995Z,101358.84
2022-12-05T18:34:20.251Z,101354.84
2022-12-05T18:36:51.144Z,101359.00
2022-12-05T18:39:26.157Z,101354.16
2022-12-05T18:41:56.063Z,101357.13
2022-12-05T18:44:26.480Z,101357.72
2022-12-05T18:46:56.399Z,101364.19
2022-12-05T18:49:26.914Z,101366.44
2022-12-05T18:51:57.762Z,101345.38
2022-12-05T18:54:30.306Z,101374.78
2022-12-05T18:57:00.154Z,101375.56
2022-12-05T18:59:30.759Z,101377.06
2022-12-05T19:02:00.952Z,101373.47
2022-12-05T19:04:31.649Z,101365.91
2022-12-05T19:07:03.260Z,101382.19
2022-12-05T19:09:35.987Z,101372.16
2022-12-05T19:12:06.102Z,101377.84
2022-12-05T19:14:37.853Z,101379.34
2022-12-05T19:17:07.847Z,101370.63
2022-12-05T19:19:37.803Z,101365.22
2022-12-05T19:22:07.708Z,101367.13
2022-12-05T19:24:40.230Z,101376.25
2022-12-05T19:27:11.133Z,101358.94
2022-12-05T19:29:41.044Z,101383.31
2022-12-05T19:32:10.975Z,101382.13
2022-12-05T19:34:41.011Z,101333.16
2022-12-05T19:37:11.956Z,101391.00
2022-12-05T19:39:45.061Z,101383.75
2022-12-05T19:42:14.903Z,101384.97
2022-12-05T19:44:45.833Z,101383.84
2022-12-05T19:47:15.676Z,101387.06
2022-12-05T19:49:45.606Z,101383.84
2022-12-05T19:52:18.011Z,101378.97
2022-12-05T19:54:50.700Z,101376.00
2022-12-05T19:57:20.810Z,101384.19
2022-12-05T19:59:51.755Z,101379.91
2022-12-05T20:02:21.666Z,101386.03
2022-12-05T20:04:51.636Z,101383.50
2022-12-05T20:07:21.531Z,101380.63
2022-12-05T20:09:54.001Z,101380.72
2022-12-05T20:12:23.915Z,101383.06
2022-12-05T20:14:53.988Z,101390.28
2022-12-05T20:17:23.883Z,101316.97
2022-12-05T20:19:53.801Z,101376.97
2022-12-05T20:22:23.681Z,101370.94
2022-12-05T20:24:56.234Z,101380.53
2022-12-05T20:27:27.496Z,101379.66
2022-12-05T20:29:57.518Z,101383.94
2022-12-05T20:32:27.814Z,101372.03
2022-12-05T20:34:58.719Z,101381.41
2022-12-05T20:37:31.164Z,101368.69
2022-12-05T20:40:07.011Z,101338.38
2022-12-05T20:42:38.905Z,101376.88
2022-12-05T20:45:12.704Z,101371.03
2022-12-05T20:47:43.031Z,101378.09
2022-12-05T20:50:15.911Z,101374.38
2022-12-05T20:52:47.082Z,101369.31
2022-12-05T20:55:20.695Z,101377.03
2022-12-05T20:57:50.577Z,101371.50
2022-12-05T21:00:21.555Z,101357.47
2022-12-05T21:02:52.515Z,101373.88
2022-12-05T21:05:24.186Z,101376.06
2022-12-05T21:07:54.081Z,101378.78
2022-12-05T21:10:30.166Z,101317.31
2022-12-05T21:12:59.991Z,101372.38
2022-12-05T21:15:30.838Z,101350.75
2022-12-05T21:18:04.410Z,101350.59
2022-12-05T21:20:41.925Z,101373.03
2022-12-05T21:23:12.343Z,101346.69
2022-12-05T21:25:44.804Z,101369.03
2022-12-05T21:28:14.659Z,101303.41
2022-12-05T21:30:44.636Z,101368.72
2022-12-05T21:33:14.756Z,101370.94
2022-12-05T21:35:44.607Z,101372.69
2022-12-05T21:38:16.497Z,101300.34
2022-12-05T21:40:49.018Z,101372.88
2022-12-05T21:43:19.576Z,101369.22
2022-12-05T21:45:53.921Z,101358.94
2022-12-05T21:48:25.578Z,101362.06
2022-12-05T21:50:58.101Z,101364.25
2022-12-05T21:53:31.410Z,101362.34
2022-12-05T21:56:06.017Z,101372.78
2022-12-05T21:58:42.092Z,101368.31
2022-12-05T22:01:19.045Z,101386.97
2022-12-05T22:03:49.493Z,101294.25
2022-12-05T22:06:21.431Z,101378.00
2022-12-05T22:08:51.317Z,101372.50
2022-12-05T22:11:28.101Z,101381.31
2022-12-05T22:13:58.041Z,101373.88
2022-12-05T22:16:32.779Z,101310.81
2022-12-05T22:19:03.932Z,101311.19
2022-12-05T22:21:34.537Z,101334.72
2022-12-05T22:24:04.790Z,101370.59
2022-12-05T22:26:37.308Z,101370.94
2022-12-05T22:29:10.922Z,101318.88
2022-12-05T22:31:42.030Z,101369.97
2022-12-05T22:34:15.437Z,101328.56
2022-12-05T22:36:45.333Z,101366.69
2022-12-05T22:39:18.409Z,101301.31
2022-12-05T22:41:50.876Z,101353.63
2022-12-05T22:44:22.026Z,101349.63
2022-12-05T22:46:53.344Z,101358.69
2022-12-05T22:49:25.319Z,101353.63
2022-12-05T22:51:58.466Z,101344.84
2022-12-05T22:54:30.298Z,101349.78
2022-12-05T22:57:03.019Z,101339.63
2022-12-05T22:59:36.469Z,101337.00
2022-12-05T23:02:06.447Z,101337.00
2022-12-05T23:04:36.438Z,101342.72
2022-12-05T23:07:06.411Z,101324.63
2022-12-05T23:09:36.319Z,101329.44
2022-12-05T23:12:09.652Z,101337.53
2022-12-05T23:14:39.750Z,101333.50
2022-12-05T23:17:11.875Z,101336.84
2022-12-05T23:19:45.544Z,101341.28
2022-12-05T23:22:16.623Z,101336.66
2022-12-05T23:24:47.677Z,101336.22
2022-12-05T23:27:20.638Z,101322.88
2022-12-05T23:29:50.599Z,101276.75
2022-12-05T23:32:21.630Z,101327.16
2022-12-05T23:34:52.593Z,101269.03
2022-12-05T23:37:26.629Z,101332.13
2022-12-05T23:39:56.858Z,101327.88
2022-12-05T23:42:33.203Z,101331.78
2022-12-05T23:45:03.246Z,101328.47
2022-12-05T23:47:34.320Z,101329.53
2022-12-05T23:50:04.531Z,101278.94
2022-12-05T23:52:34.551Z,101321.69
2022-12-05T23:55:06.864Z,101324.13
2022-12-05T23:57:39.503Z,101321.69
